sensor_id;sensor_type;location;lat;lon;timestamp;P1;durP1;ratioP1;P2;durP2;ratioP2
22652;SDS011;11493;43.344;26.226;2023-07-13T00:00:48;20.05;;;14.82;;
22652;SDS011;11493;43.344;26.226;2023-07-13T00:03:15;18.67;;;14.57;;
22652;SDS011;11493;43.344;26.226;2023-07-13T00:05:43;16.02;;;14.32;;
22652;SDS011;11493;43.344;26.226;2023-07-13T00:08:11;16.35;;;14.05;;
22652;SDS011;11493;43.344;26.226;2023-07-13T00:10:39;19.48;;;14.98;;
22652;SDS011;11493;43.344;26.226;2023-07-13T00:13:07;17.35;;;14.63;;
22652;SDS011;11493;43.344;26.226;2023-07-13T00:15:35;17.10;;;14.65;;
22652;SDS011;11493;43.344;26.226;2023-07-13T00:18:03;18.33;;;14.02;;
22652;SDS011;11493;43.344;26.226;2023-07-13T00:20:30;20.23;;;15.40;;
22652;SDS011;11493;43.344;26.226;2023-07-13T00:22:57;20.00;;;14.30;;
22652;SDS011;11493;43.344;26.226;2023-07-13T00:25:24;20.73;;;15.02;;
22652;SDS011;11493;43.344;26.226;2023-07-13T00:27:54;17.77;;;14.27;;
22652;SDS011;11493;43.344;26.226;2023-07-13T00:30:22;16.33;;;14.63;;
22652;SDS011;11493;43.344;26.226;2023-07-13T00:32:50;17.08;;;15.38;;
22652;SDS011;11493;43.344;26.226;2023-07-13T00:35:34;15.25;;;13.75;;
22652;SDS011;11493;43.344;26.226;2023-07-13T00:38:01;15.43;;;13.93;;
22652;SDS011;11493;43.344;26.226;2023-07-13T00:40:28;17.83;;;14.35;;
22652;SDS011;11493;43.344;26.226;2023-07-13T00:42:57;19.20;;;14.75;;
22652;SDS011;11493;43.344;26.226;2023-07-13T00:47:51;16.90;;;14.68;;
22652;SDS011;11493;43.344;26.226;2023-07-13T00:50:19;20.83;;;14.80;;
22652;SDS011;11493;43.344;26.226;2023-07-13T00:52:52;17.83;;;14.45;;
22652;SDS011;11493;43.344;26.226;2023-07-13T00:55:22;19.33;;;15.32;;
22652;SDS011;11493;43.344;26.226;2023-07-13T00:57:49;17.27;;;14.93;;
22652;SDS011;11493;43.344;26.226;2023-07-13T01:00:16;15.75;;;13.40;;
22652;SDS011;11493;43.344;26.226;2023-07-13T01:02:45;16.45;;;14.75;;
22652;SDS011;11493;43.344;26.226;2023-07-13T01:05:14;16.42;;;14.40;;
22652;SDS011;11493;43.344;26.226;2023-07-13T01:07:44;21.05;;;15.98;;
22652;SDS011;11493;43.344;26.226;2023-07-13T01:10:12;17.95;;;15.63;;
22652;SDS011;11493;43.344;26.226;2023-07-13T01:12:40;19.15;;;14.23;;
22652;SDS011;11493;43.344;26.226;2023-07-13T01:18:05;15.77;;;14.18;;
22652;SDS011;11493;43.344;26.226;2023-07-13T01:20:35;21.20;;;15.77;;
22652;SDS011;11493;43.344;26.226;2023-07-13T01:23:05;19.65;;;14.45;;
22652;SDS011;11493;43.344;26.226;2023-07-13T01:25:34;16.48;;;14.35;;
22652;SDS011;11493;43.344;26.226;2023-07-13T01:28:03;15.00;;;13.68;;
22652;SDS011;11493;43.344;26.226;2023-07-13T01:30:31;20.00;;;14.45;;
22652;SDS011;11493;43.344;26.226;2023-07-13T01:33:01;17.30;;;14.48;;
22652;SDS011;11493;43.344;26.226;2023-07-13T01:35:28;16.13;;;14.40;;
22652;SDS011;11493;43.344;26.226;2023-07-13T01:37:56;28.23;;;14.35;;
22652;SDS011;11493;43.344;26.226;2023-07-13T01:40:23;18.27;;;14.68;;
22652;SDS011;11493;43.344;26.226;2023-07-13T01:42:51;19.50;;;15.90;;
22652;SDS011;11493;43.344;26.226;2023-07-13T01:45:19;22.67;;;16.15;;
22652;SDS011;11493;43.344;26.226;2023-07-13T01:47:46;18.13;;;14.60;;
22652;SDS011;11493;43.344;26.226;2023-07-13T01:50:14;21.13;;;15.75;;
22652;SDS011;11493;43.344;26.226;2023-07-13T01:52:41;18.23;;;15.50;;
22652;SDS011;11493;43.344;26.226;2023-07-13T01:55:08;20.38;;;15.68;;
22652;SDS011;11493;43.344;26.226;2023-07-13T01:57:35;19.40;;;17.25;;
22652;SDS011;11493;43.344;26.226;2023-07-13T02:00:03;26.80;;;16.40;;
22652;SDS011;11493;43.344;26.226;2023-07-13T02:02:41;18.75;;;15.68;;
22652;SDS011;11493;43.344;26.226;2023-07-13T02:05:12;18.02;;;15.98;;
22652;SDS011;11493;43.344;26.226;2023-07-13T02:07:40;17.70;;;15.27;;
22652;SDS011;11493;43.344;26.226;2023-07-13T02:10:08;21.30;;;17.08;;
22652;SDS011;11493;43.344;26.226;2023-07-13T02:12:37;31.15;;;18.63;;
22652;SDS011;11493;43.344;26.226;2023-07-13T02:15:04;26.60;;;19.42;;
22652;SDS011;11493;43.344;26.226;2023-07-13T02:17:33;26.40;;;18.85;;
22652;SDS011;11493;43.344;26.226;2023-07-13T02:20:01;25.02;;;17.15;;
22652;SDS011;11493;43.344;26.226;2023-07-13T02:22:30;19.48;;;16.25;;
22652;SDS011;11493;43.344;26.226;2023-07-13T02:24:58;19.23;;;16.83;;
22652;SDS011;11493;43.344;26.226;2023-07-13T02:27:25;24.65;;;16.73;;
22652;SDS011;11493;43.344;26.226;2023-07-13T02:29:52;19.50;;;17.42;;
22652;SDS011;11493;43.344;26.226;2023-07-13T02:32:20;17.90;;;16.00;;
22652;SDS011;11493;43.344;26.226;2023-07-13T02:34:48;23.98;;;16.30;;
22652;SDS011;11493;43.344;26.226;2023-07-13T02:37:15;19.33;;;16.80;;
22652;SDS011;11493;43.344;26.226;2023-07-13T02:39:43;22.25;;;17.35;;
22652;SDS011;11493;43.344;26.226;2023-07-13T02:42:10;21.10;;;17.25;;
22652;SDS011;11493;43.344;26.226;2023-07-13T02:44:37;23.08;;;16.85;;
22652;SDS011;11493;43.344;26.226;2023-07-13T02:47:04;21.90;;;16.33;;
22652;SDS011;11493;43.344;26.226;2023-07-13T02:49:31;26.95;;;17.95;;
22652;SDS011;11493;43.344;26.226;2023-07-13T02:51:58;18.35;;;15.85;;
22652;SDS011;11493;43.344;26.226;2023-07-13T02:54:26;26.30;;;16.00;;
22652;SDS011;11493;43.344;26.226;2023-07-13T02:56:53;18.73;;;16.25;;
22652;SDS011;11493;43.344;26.226;2023-07-13T02:59:20;21.88;;;16.52;;
22652;SDS011;11493;43.344;26.226;2023-07-13T03:01:48;19.35;;;17.30;;
22652;SDS011;11493;43.344;26.226;2023-07-13T03:04:15;19.23;;;17.23;;
22652;SDS011;11493;43.344;26.226;2023-07-13T03:09:14;23.98;;;17.02;;
22652;SDS011;11493;43.344;26.226;2023-07-13T03:11:47;19.77;;;16.38;;
22652;SDS011;11493;43.344;26.226;2023-07-13T03:14:22;17.52;;;15.80;;
22652;SDS011;11493;43.344;26.226;2023-07-13T03:16:50;20.20;;;16.10;;
22652;SDS011;11493;43.344;26.226;2023-07-13T03:19:21;23.48;;;16.92;;
22652;SDS011;11493;43.344;26.226;2023-07-13T03:21:50;18.52;;;16.60;;
22652;SDS011;11493;43.344;26.226;2023-07-13T03:24:17;22.08;;;17.50;;
22652;SDS011;11493;43.344;26.226;2023-07-13T03:26:44;25.48;;;16.65;;
22652;SDS011;11493;43.344;26.226;2023-07-13T03:29:11;19.08;;;15.77;;
22652;SDS011;11493;43.344;26.226;2023-07-13T03:31:39;19.42;;;16.80;;
22652;SDS011;11493;43.344;26.226;2023-07-13T03:34:06;17.70;;;16.02;;
22652;SDS011;11493;43.344;26.226;2023-07-13T03:36:35;20.63;;;15.85;;
22652;SDS011;11493;43.344;26.226;2023-07-13T03:39:06;18.98;;;16.50;;
22652;SDS011;11493;43.344;26.226;2023-07-13T03:42:05;23.05;;;15.75;;
22652;SDS011;11493;43.344;26.226;2023-07-13T03:44:32;26.98;;;16.63;;
22652;SDS011;11493;43.344;26.226;2023-07-13T03:47:00;22.60;;;15.82;;
22652;SDS011;11493;43.344;26.226;2023-07-13T03:49:28;17.60;;;14.32;;
22652;SDS011;11493;43.344;26.226;2023-07-13T03:51:55;27.42;;;15.43;;
22652;SDS011;11493;43.344;26.226;2023-07-13T03:54:22;20.13;;;14.90;;
22652;SDS011;11493;43.344;26.226;2023-07-13T03:56:49;21.17;;;15.70;;
22652;SDS011;11493;43.344;26.226;2023-07-13T03:59:17;18.27;;;14.73;;
22652;SDS011;11493;43.344;26.226;2023-07-13T04:01:45;19.42;;;14.93;;
22652;SDS011;11493;43.344;26.226;2023-07-13T04:04:12;20.13;;;14.40;;
22652;SDS011;11493;43.344;26.226;2023-07-13T04:06:39;23.42;;;14.48;;
22652;SDS011;11493;43.344;26.226;2023-07-13T04:09:06;21.67;;;14.00;;
22652;SDS011;11493;43.344;26.226;2023-07-13T04:11:33;22.92;;;13.68;;
22652;SDS011;11493;43.344;26.226;2023-07-13T04:16:33;27.40;;;15.80;;
22652;SDS011;11493;43.344;26.226;2023-07-13T04:19:00;26.17;;;14.57;;
22652;SDS011;11493;43.344;26.226;2023-07-13T04:21:28;26.80;;;15.15;;
22652;SDS011;11493;43.344;26.226;2023-07-13T04:23:57;19.52;;;14.40;;
22652;SDS011;11493;43.344;26.226;2023-07-13T04:26:25;26.17;;;13.75;;
22652;SDS011;11493;43.344;26.226;2023-07-13T04:28:52;23.50;;;14.13;;
22652;SDS011;11493;43.344;26.226;2023-07-13T04:31:20;22.50;;;13.93;;
22652;SDS011;11493;43.344;26.226;2023-07-13T04:33:47;24.90;;;13.45;;
22652;SDS011;11493;43.344;26.226;2023-07-13T04:36:16;17.50;;;13.23;;
22652;SDS011;11493;43.344;26.226;2023-07-13T04:38:43;29.40;;;13.77;;
22652;SDS011;11493;43.344;26.226;2023-07-13T04:41:11;21.77;;;13.45;;
22652;SDS011;11493;43.344;26.226;2023-07-13T04:43:39;23.35;;;14.07;;
22652;SDS011;11493;43.344;26.226;2023-07-13T04:46:13;18.67;;;12.75;;
22652;SDS011;11493;43.344;26.226;2023-07-13T04:48:44;24.23;;;12.90;;
22652;SDS011;11493;43.344;26.226;2023-07-13T04:51:11;25.98;;;13.15;;
22652;SDS011;11493;43.344;26.226;2023-07-13T04:53:38;21.17;;;13.05;;
22652;SDS011;11493;43.344;26.226;2023-07-13T04:56:06;22.52;;;11.82;;
22652;SDS011;11493;43.344;26.226;2023-07-13T04:58:33;22.98;;;12.35;;
22652;SDS011;11493;43.344;26.226;2023-07-13T05:01:01;29.30;;;12.57;;
22652;SDS011;11493;43.344;26.226;2023-07-13T05:03:32;29.23;;;13.43;;
22652;SDS011;11493;43.344;26.226;2023-07-13T05:06:03;17.40;;;11.82;;
22652;SDS011;11493;43.344;26.226;2023-07-13T05:08:32;180.77;;;23.17;;
22652;SDS011;11493;43.344;26.226;2023-07-13T05:11:00;39.90;;;13.65;;
22652;SDS011;11493;43.344;26.226;2023-07-13T05:13:27;21.42;;;13.00;;
22652;SDS011;11493;43.344;26.226;2023-07-13T05:15:57;26.08;;;13.13;;
22652;SDS011;11493;43.344;26.226;2023-07-13T05:18:26;22.80;;;12.57;;
22652;SDS011;11493;43.344;26.226;2023-07-13T05:21:00;18.33;;;12.10;;
22652;SDS011;11493;43.344;26.226;2023-07-13T05:23:35;20.63;;;12.55;;
22652;SDS011;11493;43.344;26.226;2023-07-13T05:26:03;14.20;;;12.10;;
22652;SDS011;11493;43.344;26.226;2023-07-13T05:28:35;17.98;;;12.52;;
22652;SDS011;11493;43.344;26.226;2023-07-13T05:31:04;24.20;;;13.25;;
22652;SDS011;11493;43.344;26.226;2023-07-13T05:33:32;26.05;;;12.13;;
22652;SDS011;11493;43.344;26.226;2023-07-13T05:35:59;25.83;;;13.55;;
22652;SDS011;11493;43.344;26.226;2023-07-13T05:38:27;27.10;;;12.23;;
22652;SDS011;11493;43.344;26.226;2023-07-13T05:40:56;33.05;;;12.45;;
22652;SDS011;11493;43.344;26.226;2023-07-13T05:43:23;32.20;;;12.75;;
22652;SDS011;11493;43.344;26.226;2023-07-13T05:45:52;20.83;;;12.00;;
22652;SDS011;11493;43.344;26.226;2023-07-13T05:48:20;21.90;;;14.80;;
22652;SDS011;11493;43.344;26.226;2023-07-13T05:50:47;27.90;;;16.33;;
22652;SDS011;11493;43.344;26.226;2023-07-13T05:53:15;23.73;;;15.10;;
22652;SDS011;11493;43.344;26.226;2023-07-13T05:55:43;19.15;;;14.43;;
22652;SDS011;11493;43.344;26.226;2023-07-13T05:58:17;24.85;;;13.50;;
22652;SDS011;11493;43.344;26.226;2023-07-13T06:00:45;24.00;;;13.05;;
22652;SDS011;11493;43.344;26.226;2023-07-13T06:03:14;19.73;;;13.15;;
22652;SDS011;11493;43.344;26.226;2023-07-13T06:05:42;24.75;;;14.18;;
22652;SDS011;11493;43.344;26.226;2023-07-13T06:08:09;25.85;;;13.48;;
22652;SDS011;11493;43.344;26.226;2023-07-13T06:10:36;19.90;;;13.48;;
22652;SDS011;11493;43.344;26.226;2023-07-13T06:13:04;24.15;;;12.63;;
22652;SDS011;11493;43.344;26.226;2023-07-13T06:15:31;24.58;;;13.35;;
22652;SDS011;11493;43.344;26.226;2023-07-13T06:17:58;22.83;;;13.60;;
22652;SDS011;11493;43.344;26.226;2023-07-13T06:20:25;22.20;;;12.07;;
22652;SDS011;11493;43.344;26.226;2023-07-13T06:22:52;20.70;;;12.02;;
22652;SDS011;11493;43.344;26.226;2023-07-13T06:25:20;18.92;;;12.65;;
22652;SDS011;11493;43.344;26.226;2023-07-13T06:27:47;17.70;;;11.75;;
22652;SDS011;11493;43.344;26.226;2023-07-13T06:30:14;20.25;;;12.50;;
22652;SDS011;11493;43.344;26.226;2023-07-13T06:32:41;29.35;;;13.20;;
22652;SDS011;11493;43.344;26.226;2023-07-13T06:35:08;41.17;;;16.95;;
22652;SDS011;11493;43.344;26.226;2023-07-13T06:37:39;26.10;;;16.30;;
22652;SDS011;11493;43.344;26.226;2023-07-13T06:40:06;25.92;;;16.27;;
22652;SDS011;11493;43.344;26.226;2023-07-13T06:42:34;22.00;;;15.07;;
22652;SDS011;11493;43.344;26.226;2023-07-13T06:45:01;25.33;;;15.20;;
22652;SDS011;11493;43.344;26.226;2023-07-13T06:47:28;18.45;;;13.60;;
22652;SDS011;11493;43.344;26.226;2023-07-13T06:49:59;20.85;;;10.98;;
22652;SDS011;11493;43.344;26.226;2023-07-13T06:52:27;15.27;;;10.52;;
22652;SDS011;11493;43.344;26.226;2023-07-13T06:54:54;18.65;;;11.05;;
22652;SDS011;11493;43.344;26.226;2023-07-13T06:57:21;13.95;;;9.25;;
22652;SDS011;11493;43.344;26.226;2023-07-13T06:59:48;16.70;;;9.52;;
22652;SDS011;11493;43.344;26.226;2023-07-13T07:02:15;11.85;;;8.57;;
22652;SDS011;11493;43.344;26.226;2023-07-13T07:04:42;12.00;;;7.68;;
22652;SDS011;11493;43.344;26.226;2023-07-13T07:07:09;17.48;;;7.50;;
22652;SDS011;11493;43.344;26.226;2023-07-13T07:09:36;14.05;;;7.65;;
22652;SDS011;11493;43.344;26.226;2023-07-13T07:12:03;10.23;;;7.97;;
22652;SDS011;11493;43.344;26.226;2023-07-13T07:14:31;8.82;;;6.88;;
22652;SDS011;11493;43.344;26.226;2023-07-13T07:16:59;11.75;;;6.55;;
22652;SDS011;11493;43.344;26.226;2023-07-13T07:19:29;7.53;;;6.20;;
22652;SDS011;11493;43.344;26.226;2023-07-13T07:21:57;8.73;;;6.32;;
22652;SDS011;11493;43.344;26.226;2023-07-13T07:24:24;10.82;;;6.53;;
22652;SDS011;11493;43.344;26.226;2023-07-13T07:26:52;8.98;;;5.95;;
22652;SDS011;11493;43.344;26.226;2023-07-13T07:29:22;9.68;;;6.57;;
22652;SDS011;11493;43.344;26.226;2023-07-13T07:31:54;11.30;;;6.10;;
22652;SDS011;11493;43.344;26.226;2023-07-13T07:34:24;7.45;;;6.53;;
22652;SDS011;11493;43.344;26.226;2023-07-13T07:36:51;8.88;;;6.25;;
22652;SDS011;11493;43.344;26.226;2023-07-13T07:39:21;14.05;;;6.45;;
22652;SDS011;11493;43.344;26.226;2023-07-13T07:41:48;9.40;;;5.53;;
22652;SDS011;11493;43.344;26.226;2023-07-13T07:44:18;7.57;;;6.10;;
22652;SDS011;11493;43.344;26.226;2023-07-13T07:46:45;10.15;;;6.43;;
22652;SDS011;11493;43.344;26.226;2023-07-13T07:49:13;10.23;;;5.40;;
22652;SDS011;11493;43.344;26.226;2023-07-13T07:51:40;9.18;;;6.00;;
22652;SDS011;11493;43.344;26.226;2023-07-13T07:54:07;11.68;;;6.20;;
22652;SDS011;11493;43.344;26.226;2023-07-13T07:56:39;10.80;;;5.75;;
22652;SDS011;11493;43.344;26.226;2023-07-13T07:59:09;6.67;;;4.97;;
22652;SDS011;11493;43.344;26.226;2023-07-13T08:01:39;10.90;;;5.97;;
22652;SDS011;11493;43.344;26.226;2023-07-13T08:04:26;6.90;;;5.00;;
22652;SDS011;11493;43.344;26.226;2023-07-13T08:06:57;12.18;;;5.38;;
22652;SDS011;11493;43.344;26.226;2023-07-13T08:09:24;7.65;;;5.20;;
22652;SDS011;11493;43.344;26.226;2023-07-13T08:11:51;14.63;;;5.30;;
22652;SDS011;11493;43.344;26.226;2023-07-13T08:14:21;6.07;;;4.60;;
22652;SDS011;11493;43.344;26.226;2023-07-13T08:16:48;6.13;;;4.63;;
22652;SDS011;11493;43.344;26.226;2023-07-13T08:19:16;8.57;;;4.55;;
22652;SDS011;11493;43.344;26.226;2023-07-13T08:21:43;9.07;;;4.72;;
22652;SDS011;11493;43.344;26.226;2023-07-13T08:24:10;6.38;;;5.13;;
22652;SDS011;11493;43.344;26.226;2023-07-13T08:26:37;7.43;;;4.93;;
22652;SDS011;11493;43.344;26.226;2023-07-13T08:29:04;7.05;;;4.50;;
22652;SDS011;11493;43.344;26.226;2023-07-13T08:31:31;6.30;;;4.32;;
22652;SDS011;11493;43.344;26.226;2023-07-13T08:33:58;4.88;;;4.15;;
22652;SDS011;11493;43.344;26.226;2023-07-13T08:36:30;7.60;;;4.43;;
22652;SDS011;11493;43.344;26.226;2023-07-13T08:38:57;10.40;;;4.03;;
22652;SDS011;11493;43.344;26.226;2023-07-13T08:41:24;6.70;;;4.10;;
22652;SDS011;11493;43.344;26.226;2023-07-13T08:43:54;7.20;;;4.28;;
22652;SDS011;11493;43.344;26.226;2023-07-13T08:46:35;5.40;;;4.35;;
22652;SDS011;11493;43.344;26.226;2023-07-13T08:49:09;6.57;;;4.03;;
22652;SDS011;11493;43.344;26.226;2023-07-13T08:54:33;7.97;;;3.90;;
22652;SDS011;11493;43.344;26.226;2023-07-13T08:57:10;8.27;;;3.57;;
22652;SDS011;11493;43.344;26.226;2023-07-13T08:59:40;7.20;;;3.85;;
22652;SDS011;11493;43.344;26.226;2023-07-13T09:04:42;7.68;;;3.55;;
22652;SDS011;11493;43.344;26.226;2023-07-13T09:07:14;9.30;;;3.17;;
22652;SDS011;11493;43.344;26.226;2023-07-13T09:10:09;7.40;;;3.90;;
22652;SDS011;11493;43.344;26.226;2023-07-13T09:17:52;6.40;;;3.35;;
22652;SDS011;11493;43.344;26.226;2023-07-13T09:20:34;11.20;;;3.53;;
22652;SDS011;11493;43.344;26.226;2023-07-13T09:23:05;11.98;;;3.60;;
22652;SDS011;11493;43.344;26.226;2023-07-13T09:25:38;3.72;;;2.95;;
22652;SDS011;11493;43.344;26.226;2023-07-13T09:28:11;7.35;;;3.45;;
22652;SDS011;11493;43.344;26.226;2023-07-13T09:30:46;11.23;;;3.80;;
22652;SDS011;11493;43.344;26.226;2023-07-13T09:33:20;6.25;;;3.00;;
22652;SDS011;11493;43.344;26.226;2023-07-13T09:35:48;5.30;;;3.63;;
22652;SDS011;11493;43.344;26.226;2023-07-13T09:38:17;19.55;;;3.65;;
22652;SDS011;11493;43.344;26.226;2023-07-13T09:43:28;7.25;;;3.47;;
22652;SDS011;11493;43.344;26.226;2023-07-13T09:45:58;7.30;;;3.53;;
22652;SDS011;11493;43.344;26.226;2023-07-13T09:48:30;4.20;;;3.35;;
22652;SDS011;11493;43.344;26.226;2023-07-13T09:51:13;5.63;;;3.60;;
22652;SDS011;11493;43.344;26.226;2023-07-13T09:53:42;4.03;;;2.90;;
22652;SDS011;11493;43.344;26.226;2023-07-13T09:56:22;8.20;;;3.08;;
22652;SDS011;11493;43.344;26.226;2023-07-13T09:58:50;6.15;;;3.55;;
22652;SDS011;11493;43.344;26.226;2023-07-13T10:01:31;3.45;;;3.15;;
22652;SDS011;11493;43.344;26.226;2023-07-13T10:04:12;9.20;;;2.95;;
22652;SDS011;11493;43.344;26.226;2023-07-13T10:06:40;5.43;;;2.70;;
22652;SDS011;11493;43.344;26.226;2023-07-13T10:09:10;4.78;;;3.05;;
22652;SDS011;11493;43.344;26.226;2023-07-13T10:11:42;6.65;;;2.90;;
22652;SDS011;11493;43.344;26.226;2023-07-13T10:14:15;5.43;;;2.70;;
22652;SDS011;11493;43.344;26.226;2023-07-13T10:16:49;5.95;;;2.78;;
22652;SDS011;11493;43.344;26.226;2023-07-13T10:19:26;3.30;;;2.75;;
22652;SDS011;11493;43.344;26.226;2023-07-13T10:21:56;9.13;;;3.30;;
22652;SDS011;11493;43.344;26.226;2023-07-13T10:24:36;5.40;;;3.47;;
22652;SDS011;11493;43.344;26.226;2023-07-13T10:27:18;8.70;;;2.83;;
22652;SDS011;11493;43.344;26.226;2023-07-13T10:29:52;4.25;;;3.50;;
22652;SDS011;11493;43.344;26.226;2023-07-13T10:32:34;9.02;;;3.03;;
22652;SDS011;11493;43.344;26.226;2023-07-13T10:35:02;6.28;;;2.85;;
22652;SDS011;11493;43.344;26.226;2023-07-13T10:37:31;7.78;;;3.10;;
22652;SDS011;11493;43.344;26.226;2023-07-13T10:40:11;7.97;;;3.25;;
22652;SDS011;11493;43.344;26.226;2023-07-13T10:42:42;7.95;;;3.30;;
22652;SDS011;11493;43.344;26.226;2023-07-13T10:45:20;6.85;;;2.88;;
22652;SDS011;11493;43.344;26.226;2023-07-13T10:47:50;9.10;;;3.72;;
22652;SDS011;11493;43.344;26.226;2023-07-13T10:50:21;10.45;;;3.40;;
22652;SDS011;11493;43.344;26.226;2023-07-13T10:52:52;7.68;;;3.40;;
22652;SDS011;11493;43.344;26.226;2023-07-13T11:03:30;8.05;;;3.53;;
22652;SDS011;11493;43.344;26.226;2023-07-13T11:06:10;9.27;;;3.80;;
22652;SDS011;11493;43.344;26.226;2023-07-13T11:13:57;8.52;;;3.72;;
22652;SDS011;11493;43.344;26.226;2023-07-13T11:19:46;8.98;;;3.60;;
22652;SDS011;11493;43.344;26.226;2023-07-13T11:22:41;8.35;;;3.72;;
22652;SDS011;11493;43.344;26.226;2023-07-13T11:28:17;4.85;;;3.72;;
22652;SDS011;11493;43.344;26.226;2023-07-13T11:30:48;6.97;;;3.65;;
22652;SDS011;11493;43.344;26.226;2023-07-13T11:36:02;7.25;;;3.63;;
22652;SDS011;11493;43.344;26.226;2023-07-13T11:38:36;6.50;;;3.50;;
22652;SDS011;11493;43.344;26.226;2023-07-13T11:44:14;11.35;;;3.75;;
22652;SDS011;11493;43.344;26.226;2023-07-13T11:46:50;9.13;;;4.10;;
22652;SDS011;11493;43.344;26.226;2023-07-13T11:49:22;7.95;;;3.63;;
22652;SDS011;11493;43.344;26.226;2023-07-13T11:51:53;9.38;;;3.47;;
22652;SDS011;11493;43.344;26.226;2023-07-13T11:56:57;7.55;;;3.80;;
22652;SDS011;11493;43.344;26.226;2023-07-13T11:59:43;7.22;;;4.15;;
22652;SDS011;11493;43.344;26.226;2023-07-13T12:02:16;10.00;;;3.50;;
22652;SDS011;11493;43.344;26.226;2023-07-13T12:04:55;7.60;;;3.58;;
22652;SDS011;11493;43.344;26.226;2023-07-13T12:07:22;5.53;;;3.53;;
22652;SDS011;11493;43.344;26.226;2023-07-13T12:09:49;6.80;;;3.60;;
22652;SDS011;11493;43.344;26.226;2023-07-13T12:12:21;14.77;;;3.97;;
22652;SDS011;11493;43.344;26.226;2023-07-13T12:14:52;6.05;;;3.55;;
22652;SDS011;11493;43.344;26.226;2023-07-13T12:17:20;6.60;;;3.28;;
22652;SDS011;11493;43.344;26.226;2023-07-13T12:19:52;7.70;;;3.63;;
22652;SDS011;11493;43.344;26.226;2023-07-13T12:22:20;6.47;;;3.40;;
22652;SDS011;11493;43.344;26.226;2023-07-13T12:24:47;6.95;;;3.78;;
22652;SDS011;11493;43.344;26.226;2023-07-13T12:27:25;7.60;;;3.38;;
22652;SDS011;11493;43.344;26.226;2023-07-13T12:29:58;11.27;;;3.50;;
22652;SDS011;11493;43.344;26.226;2023-07-13T12:32:27;7.68;;;3.65;;
22652;SDS011;11493;43.344;26.226;2023-07-13T12:35:18;6.93;;;3.38;;
22652;SDS011;11493;43.344;26.226;2023-07-13T12:37:48;6.00;;;3.65;;
22652;SDS011;11493;43.344;26.226;2023-07-13T12:40:18;7.70;;;3.90;;
22652;SDS011;11493;43.344;26.226;2023-07-13T12:42:49;9.40;;;3.33;;
22652;SDS011;11493;43.344;26.226;2023-07-13T12:45:23;6.70;;;3.78;;
22652;SDS011;11493;43.344;26.226;2023-07-13T12:47:53;8.27;;;3.63;;
22652;SDS011;11493;43.344;26.226;2023-07-13T12:50:45;10.27;;;3.85;;
22652;SDS011;11493;43.344;26.226;2023-07-13T12:53:15;7.60;;;2.95;;
22652;SDS011;11493;43.344;26.226;2023-07-13T12:55:55;10.48;;;3.47;;
22652;SDS011;11493;43.344;26.226;2023-07-13T12:58:29;7.90;;;3.63;;
22652;SDS011;11493;43.344;26.226;2023-07-13T13:00:58;7.13;;;3.65;;
22652;SDS011;11493;43.344;26.226;2023-07-13T13:06:00;10.30;;;3.45;;
22652;SDS011;11493;43.344;26.226;2023-07-13T13:08:58;7.30;;;3.03;;
22652;SDS011;11493;43.344;26.226;2023-07-13T13:11:27;6.20;;;3.30;;
22652;SDS011;11493;43.344;26.226;2023-07-13T13:13:57;10.82;;;4.03;;
22652;SDS011;11493;43.344;26.226;2023-07-13T13:16:31;29.52;;;22.92;;
22652;SDS011;11493;43.344;26.226;2023-07-13T13:19:13;14.02;;;8.23;;
22652;SDS011;11493;43.344;26.226;2023-07-13T13:21:45;8.15;;;4.90;;
22652;SDS011;11493;43.344;26.226;2023-07-13T13:24:13;11.98;;;8.30;;
22652;SDS011;11493;43.344;26.226;2023-07-13T13:26:43;10.75;;;5.03;;
22652;SDS011;11493;43.344;26.226;2023-07-13T13:29:22;10.00;;;3.83;;
22652;SDS011;11493;43.344;26.226;2023-07-13T13:31:54;13.50;;;6.68;;
22652;SDS011;11493;43.344;26.226;2023-07-13T13:34:22;13.70;;;5.30;;
22652;SDS011;11493;43.344;26.226;2023-07-13T13:36:50;7.88;;;3.42;;
22652;SDS011;11493;43.344;26.226;2023-07-13T13:39:24;12.65;;;4.47;;
22652;SDS011;11493;43.344;26.226;2023-07-13T13:41:56;6.35;;;3.70;;
22652;SDS011;11493;43.344;26.226;2023-07-13T13:44:23;13.73;;;7.20;;
22652;SDS011;11493;43.344;26.226;2023-07-13T13:46:52;10.00;;;3.88;;
22652;SDS011;11493;43.344;26.226;2023-07-13T13:49:25;12.15;;;5.25;;
22652;SDS011;11493;43.344;26.226;2023-07-13T13:51:54;9.10;;;5.05;;
22652;SDS011;11493;43.344;26.226;2023-07-13T13:54:22;11.02;;;4.82;;
22652;SDS011;11493;43.344;26.226;2023-07-13T13:56:53;9.38;;;3.65;;
22652;SDS011;11493;43.344;26.226;2023-07-13T13:59:23;15.02;;;5.03;;
22652;SDS011;11493;43.344;26.226;2023-07-13T14:01:50;7.28;;;3.35;;
22652;SDS011;11493;43.344;26.226;2023-07-13T14:04:18;10.48;;;3.85;;
22652;SDS011;11493;43.344;26.226;2023-07-13T14:06:47;14.52;;;3.95;;
22652;SDS011;11493;43.344;26.226;2023-07-13T14:09:15;13.95;;;3.83;;
22652;SDS011;11493;43.344;26.226;2023-07-13T14:11:48;15.35;;;4.30;;
22652;SDS011;11493;43.344;26.226;2023-07-13T14:14:19;9.77;;;3.38;;
22652;SDS011;11493;43.344;26.226;2023-07-13T14:16:51;9.30;;;4.15;;
22652;SDS011;11493;43.344;26.226;2023-07-13T14:19:22;10.82;;;3.90;;
22652;SDS011;11493;43.344;26.226;2023-07-13T14:21:49;11.57;;;4.10;;
22652;SDS011;11493;43.344;26.226;2023-07-13T14:24:20;5.75;;;3.42;;
22652;SDS011;11493;43.344;26.226;2023-07-13T14:26:48;12.07;;;4.20;;
22652;SDS011;11493;43.344;26.226;2023-07-13T14:29:18;11.55;;;3.95;;
22652;SDS011;11493;43.344;26.226;2023-07-13T14:31:50;6.65;;;3.60;;
22652;SDS011;11493;43.344;26.226;2023-07-13T14:34:18;16.25;;;5.20;;
22652;SDS011;11493;43.344;26.226;2023-07-13T14:36:47;12.55;;;4.22;;
22652;SDS011;11493;43.344;26.226;2023-07-13T14:39:17;9.50;;;4.75;;
22652;SDS011;11493;43.344;26.226;2023-07-13T14:41:51;6.97;;;3.58;;
22652;SDS011;11493;43.344;26.226;2023-07-13T14:44:21;7.90;;;4.97;;
22652;SDS011;11493;43.344;26.226;2023-07-13T14:46:51;16.10;;;5.60;;
22652;SDS011;11493;43.344;26.226;2023-07-13T14:49:29;10.13;;;4.35;;
22652;SDS011;11493;43.344;26.226;2023-07-13T14:52:19;8.18;;;3.70;;
22652;SDS011;11493;43.344;26.226;2023-07-13T14:54:51;6.70;;;3.03;;
22652;SDS011;11493;43.344;26.226;2023-07-13T14:57:19;7.88;;;3.45;;
22652;SDS011;11493;43.344;26.226;2023-07-13T14:59:47;5.28;;;3.33;;
22652;SDS011;11493;43.344;26.226;2023-07-13T15:02:23;11.43;;;4.95;;
22652;SDS011;11493;43.344;26.226;2023-07-13T15:05:01;12.60;;;4.65;;
22652;SDS011;11493;43.344;26.226;2023-07-13T15:07:32;19.83;;;4.53;;
22652;SDS011;11493;43.344;26.226;2023-07-13T15:10:00;11.23;;;4.15;;
22652;SDS011;11493;43.344;26.226;2023-07-13T15:12:27;11.77;;;4.47;;
22652;SDS011;11493;43.344;26.226;2023-07-13T15:14:55;9.57;;;4.40;;
22652;SDS011;11493;43.344;26.226;2023-07-13T15:17:33;10.90;;;4.35;;
22652;SDS011;11493;43.344;26.226;2023-07-13T15:20:05;10.95;;;4.60;;
22652;SDS011;11493;43.344;26.226;2023-07-13T15:22:40;6.45;;;3.38;;
22652;SDS011;11493;43.344;26.226;2023-07-13T15:25:16;9.50;;;3.00;;
22652;SDS011;11493;43.344;26.226;2023-07-13T15:27:51;4.78;;;3.15;;
22652;SDS011;11493;43.344;26.226;2023-07-13T15:30:20;6.60;;;3.53;;
22652;SDS011;11493;43.344;26.226;2023-07-13T15:32:48;10.55;;;2.90;;